Charleston, Vermont
Current Conditions -  °F | °C
As of 7:54 PM on Tuesday 21 Oct 2014 (Local Time) from KMVL Reporting Station
Light Rain Light Rain  
Wind Chill: 47°   Ceiling: 1100
Heat Index: 47°   Visibility: 8mi
Dew Point: 45°   Wind: 0mph
Humidity: 93%   Direction: NA
Pressure: 30.07"   Gusts: NA
Location:  44.8666°N, 72.0503°W
Report Text: KMVL 212354Z AUTO 00000KT 8SM -RA OVC011 08/07 A3007 RMK AO2 SLP187 P0000 60012 T00830072 10089 20083 51012
Loading
Personal Weather Stations






























Interactive Weather Map
Tropical Storm Tracking
New forecast layout! Learn more

10-Day Weather Forecast

Advertisements
Track Severe Weather on mobile